Time;durP1;ratioP1;P1;durP2;ratioP2;P2;SDS_P1;SDS_P2;PMS_P1;PMS_P2;Temp;Humidity;BMP_temperature;BMP_pressure;BME280_temperature;BME280_humidity;BME280_pressure;Samples;Min_cycle;Max_cycle;Signal;HPM_P1;HPM_P2
2022/08/16 00:01:43;;;;;;;;;;;26.50;38.40;;;;;;1514901;77;756;-56
2022/08/16 00:03:45;;;;;;;;;;;26.50;38.40;;;;;;1505711;77;1147;-55
2022/08/16 00:05:47;;;;;;;;;;;26.50;38.40;;;;;;1506918;77;636;-56
2022/08/16 00:07:49;;;;;;;;;;;26.40;38.40;;;;;;1516936;77;1946;-55
2022/08/16 00:09:51;;;;;;;;;;;26.50;38.40;;;;;;1518838;77;696;-54
2022/08/16 00:11:53;;;;;;;;;;;26.40;38.40;;;;;;1510514;77;1474;-56
2022/08/16 00:13:55;;;;;;;;;;;26.50;38.50;;;;;;1518851;76;1141;-54
2022/08/16 00:15:57;;;;;;;;;;;26.40;38.60;;;;;;1517526;77;756;-54
2022/08/16 00:17:58;;;;;;;;;;;26.40;38.60;;;;;;1518311;77;742;-56
2022/08/16 00:20:00;;;;;;;;;;;26.50;38.60;;;;;;1523275;77;888;-53
2022/08/16 00:22:02;;;;;;;;;;;26.40;38.70;;;;;;1519789;77;743;-52
2022/08/16 00:24:04;;;;;;;;;;;26.40;38.60;;;;;;1500929;77;1084;-54
2022/08/16 00:26:06;;;;;;;;;;;26.50;38.60;;;;;;1510026;77;1664;-53
2022/08/16 00:28:08;;;;;;;;;;;26.40;38.60;;;;;;1513407;77;1950;-55
2022/08/16 00:30:11;;;;;;;;;;;26.40;38.60;;;;;;1511235;77;676;-56
2022/08/16 00:32:12;;;;;;;;;;;26.40;38.70;;;;;;1506286;77;716;-54
2022/08/16 00:34:14;;;;;;;;;;;26.40;38.60;;;;;;1520090;77;1157;-55
2022/08/16 00:36:16;;;;;;;;;;;26.40;38.60;;;;;;1507330;77;805;-55
2022/08/16 00:38:18;;;;;;;;;;;26.50;38.60;;;;;;1514291;77;675;-54
2022/08/16 00:40:21;;;;;;;;;;;26.40;38.60;;;;;;1512485;77;1571;-55
2022/08/16 00:42:23;;;;;;;;;;;26.40;38.60;;;;;;1506175;77;1159;-55
2022/08/16 00:44:25;;;;;;;;;;;26.40;38.60;;;;;;1517207;77;734;-54
2022/08/16 00:46:31;;;;;;;;;;;26.40;38.60;;;;;;1514373;77;670;-54
2022/08/16 00:48:33;;;;;;;;;;;26.40;38.60;;;;;;1508800;77;1929;-56
2022/08/16 00:50:36;;;;;;;;;;;26.40;38.60;;;;;;1509081;77;748;-56
2022/08/16 00:52:38;;;;;;;;;;;26.40;38.60;;;;;;1512727;76;1533;-56
2022/08/16 00:54:40;;;;;;;;;;;26.40;38.60;;;;;;1512402;77;700;-56
2022/08/16 00:56:42;;;;;;;;;;;26.40;38.60;;;;;;1504231;77;589;-56
2022/08/16 00:58:44;;;;;;;;;;;26.40;38.70;;;;;;1515294;77;663;-56
2022/08/16 01:00:46;;;;;;;;;;;26.40;38.70;;;;;;1510966;77;649;-54
2022/08/16 01:02:48;;;;;;;;;;;26.40;38.60;;;;;;1523523;76;1149;-57
2022/08/16 01:04:50;;;;;;;;;;;26.40;38.60;;;;;;1511840;77;700;-54
2022/08/16 01:06:52;;;;;;;;;;;26.40;38.60;;;;;;1516228;77;1457;-56
2022/08/16 01:08:54;;;;;;;;;;;26.40;38.60;;;;;;1509414;77;1914;-56
2022/08/16 01:10:56;;;;;;;;;;;26.40;38.60;;;;;;1510552;77;694;-57
2022/08/16 01:12:58;;;;;;;;;;;26.50;38.60;;;;;;1522264;77;1147;-57
2022/08/16 01:15:00;;;;;;;;;;;26.40;38.60;;;;;;1507154;77;741;-56
2022/08/16 01:17:02;;;;;;;;;;;26.40;38.60;;;;;;1506520;77;788;-55
2022/08/16 01:19:23;;;;;;;;;;;26.40;38.60;;;;;;1510866;77;934;-57
2022/08/16 01:21:35;;;;;;;;;;;26.40;38.60;;;;;;1517656;77;1497;-56
2022/08/16 01:23:51;;;;;;;;;;;26.40;38.60;;;;;;1508356;76;1098;-56
2022/08/16 01:25:53;;;;;;;;;;;26.50;38.60;;;;;;1478879;77;1096;-57
2022/08/16 01:27:56;;;;;;;;;;;26.40;38.60;;;;;;1518821;77;1897;-55
2022/08/16 01:30:09;;;;;;;;;;;26.40;38.60;;;;;;1519342;77;700;-57
2022/08/16 01:32:10;;;;;;;;;;;26.40;38.60;;;;;;1512389;77;683;-56
2022/08/16 01:34:12;;;;;;;;;;;26.50;38.70;;;;;;1512544;77;1162;-56
2022/08/16 01:36:14;;;;;;;;;;;26.40;38.60;;;;;;1505798;77;1518;-59
2022/08/16 01:38:21;;;;;;;;;;;26.40;38.60;;;;;;1520006;77;815;-57
2022/08/16 01:40:24;;;;;;;;;;;26.50;38.60;;;;;;1505534;77;763;-56
2022/08/16 01:42:26;;;;;;;;;;;26.40;38.60;;;;;;1519264;76;1138;-56
2022/08/16 01:44:28;;;;;;;;;;;26.50;38.50;;;;;;1521383;77;653;-56
2022/08/16 01:46:32;;;;;;;;;;;26.50;38.60;;;;;;1522876;77;683;-54
2022/08/16 01:48:34;;;;;;;;;;;26.40;38.60;;;;;;1516725;77;1898;-57
2022/08/16 01:50:36;;;;;;;;;;;26.50;38.50;;;;;;1510649;76;1620;-56
2022/08/16 01:52:37;;;;;;;;;;;26.40;38.60;;;;;;1516785;76;1154;-57
2022/08/16 01:54:39;;;;;;;;;;;26.40;38.50;;;;;;1512421;77;692;-57
2022/08/16 01:56:41;;;;;;;;;;;26.50;38.50;;;;;;1514961;77;675;-56
2022/08/16 01:58:43;;;;;;;;;;;26.50;38.40;;;;;;1511205;77;645;-55
2022/08/16 02:00:45;;;;;;;;;;;26.50;38.50;;;;;;1507591;77;717;-56
2022/08/16 02:02:47;;;;;;;;;;;26.40;38.50;;;;;;1506963;76;1503;-54
2022/08/16 02:04:49;;;;;;;;;;;26.50;38.50;;;;;;1517067;77;705;-57
2022/08/16 02:06:51;;;;;;;;;;;26.50;38.50;;;;;;1515459;77;716;-55
2022/08/16 02:08:54;;;;;;;;;;;26.50;38.60;;;;;;1505463;77;1935;-57
2022/08/16 02:10:56;;;;;;;;;;;26.40;38.50;;;;;;1514029;77;736;-58
2022/08/16 02:12:58;;;;;;;;;;;26.40;38.50;;;;;;1521895;77;1159;-57
2022/08/16 02:15:00;;;;;;;;;;;26.50;38.50;;;;;;1516022;77;713;-59
2022/08/16 02:17:02;;;;;;;;;;;26.50;38.50;;;;;;1508849;77;1455;-55
2022/08/16 02:19:04;;;;;;;;;;;26.40;38.60;;;;;;1515301;77;690;-57
2022/08/16 02:21:06;;;;;;;;;;;26.40;38.60;;;;;;1512108;77;766;-57
2022/08/16 02:23:08;;;;;;;;;;;26.40;38.60;;;;;;1516936;76;1149;-57
2022/08/16 02:25:12;;;;;;;;;;;26.40;38.60;;;;;;1512034;77;702;-56
2022/08/16 02:27:14;;;;;;;;;;;26.40;38.60;;;;;;1512125;77;724;-56
2022/08/16 02:29:17;;;;;;;;;;;26.40;38.60;;;;;;1511631;77;1908;-56
2022/08/16 02:31:19;;;;;;;;;;;26.40;38.60;;;;;;1520261;77;1453;-59
2022/08/16 02:33:21;;;;;;;;;;;26.40;38.70;;;;;;1519936;76;1157;-56
2022/08/16 02:35:23;;;;;;;;;;;26.50;38.60;;;;;;1545150;74;226525;-71
2022/08/16 02:37:25;;;;;;;;;;;26.40;38.60;;;;;;1578338;74;763;-71
2022/08/16 02:39:27;;;;;;;;;;;26.50;38.70;;;;;;1575508;74;724;-71
2022/08/16 02:41:29;;;;;;;;;;;26.50;38.70;;;;;;1576371;74;806;-71
2022/08/16 02:43:32;;;;;;;;;;;26.50;38.70;;;;;;1569690;74;774;-72
2022/08/16 02:45:34;;;;;;;;;;;26.50;38.80;;;;;;1560568;74;1553;-72
2022/08/16 02:47:36;;;;;;;;;;;26.50;38.80;;;;;;1563002;76;787;-72
2022/08/16 02:49:37;;;;;;;;;;;26.50;38.80;;;;;;1559473;74;1950;-72
2022/08/16 02:51:40;;;;;;;;;;;26.50;38.80;;;;;;1564497;74;679;-74
2022/08/16 02:53:42;;;;;;;;;;;26.50;38.80;;;;;;1560455;73;691;-71
2022/08/16 02:55:44;;;;;;;;;;;26.50;38.80;;;;;;1560051;74;1156;-71
2022/08/16 02:57:46;;;;;;;;;;;26.50;38.80;;;;;;1558804;74;729;-72
2022/08/16 02:59:49;;;;;;;;;;;26.50;38.70;;;;;;1565526;74;1362;-72
2022/08/16 03:01:50;;;;;;;;;;;26.50;38.80;;;;;;1555974;74;700;-72
2022/08/16 03:03:53;;;;;;;;;;;26.50;38.80;;;;;;1565166;74;903;-72
2022/08/16 03:05:55;;;;;;;;;;;26.50;38.80;;;;;;1555768;74;1082;-71
2022/08/16 03:07:56;;;;;;;;;;;26.50;38.80;;;;;;1560455;74;1928;-72
2022/08/16 03:09:58;;;;;;;;;;;26.40;38.80;;;;;;1557948;76;739;-72
2022/08/16 03:12:00;;;;;;;;;;;26.40;38.90;;;;;;1557668;74;703;-72
2022/08/16 03:14:03;;;;;;;;;;;26.50;38.90;;;;;;1562685;74;1627;-72
2022/08/16 03:16:05;;;;;;;;;;;26.50;38.90;;;;;;1561823;74;679;-72
2022/08/16 03:18:07;;;;;;;;;;;26.40;38.90;;;;;;1545234;76;726;-72
2022/08/16 03:20:09;;;;;;;;;;;26.40;39.00;;;;;;1537921;76;669;-71
2022/08/16 03:22:11;;;;;;;;;;;26.50;39.00;;;;;;1561136;74;750;-71
2022/08/16 03:24:13;;;;;;;;;;;26.40;39.00;;;;;;1560013;74;1130;-71
2022/08/16 03:26:15;;;;;;;;;;;26.40;39.10;;;;;;1557433;74;741;-72
2022/08/16 03:28:16;;;;;;;;;;;26.40;39.10;;;;;;1534154;75;1943;-72
2022/08/16 03:30:20;;;;;;;;;;;26.40;39.10;;;;;;1560304;74;738;-72
2022/08/16 03:32:21;;;;;;;;;;;26.40;39.10;;;;;;1562429;74;659;-71
2022/08/16 03:34:23;;;;;;;;;;;26.40;39.10;;;;;;1559182;74;1160;-71
2022/08/16 03:36:25;;;;;;;;;;;26.40;39.20;;;;;;1565545;74;769;-71
2022/08/16 03:38:28;;;;;;;;;;;26.40;39.20;;;;;;1556032;75;761;-71
2022/08/16 03:40:30;;;;;;;;;;;26.40;39.20;;;;;;1549925;75;692;-71
2022/08/16 03:42:32;;;;;;;;;;;26.30;39.20;;;;;;1542149;75;1541;-72
2022/08/16 03:44:34;;;;;;;;;;;26.30;39.30;;;;;;1558533;76;1146;-74
2022/08/16 03:46:35;;;;;;;;;;;26.40;39.30;;;;;;1536020;76;692;-74
2022/08/16 03:48:38;;;;;;;;;;;26.40;39.30;;;;;;1540619;75;1984;-74
2022/08/16 03:50:39;;;;;;;;;;;26.40;39.20;;;;;;1555583;74;706;-74
2022/08/16 03:52:41;;;;;;;;;;;26.40;39.20;;;;;;1547166;76;675;-73
2022/08/16 03:54:43;;;;;;;;;;;26.40;39.20;;;;;;1558620;74;1113;-74
2022/08/16 03:56:45;;;;;;;;;;;26.40;39.20;;;;;;1567616;74;666;-73
2022/08/16 03:58:48;;;;;;;;;;;26.40;39.20;;;;;;1546983;75;670;-73
2022/08/16 04:00:49;;;;;;;;;;;26.40;39.20;;;;;;1558587;74;724;-73
2022/08/16 04:02:52;;;;;;;;;;;26.40;39.20;;;;;;1564868;74;665;-73
2022/08/16 04:04:53;;;;;;;;;;;26.50;39.30;;;;;;1566969;74;1129;-73
2022/08/16 04:06:55;;;;;;;;;;;26.50;39.30;;;;;;1559706;74;762;-73
2022/08/16 04:08:57;;;;;;;;;;;26.40;39.20;;;;;;1572242;74;1946;-73
2022/08/16 04:10:59;;;;;;;;;;;26.40;39.30;;;;;;1560949;74;687;-72
2022/08/16 04:13:01;;;;;;;;;;;26.50;39.30;;;;;;1571618;74;808;-73
2022/08/16 04:15:03;;;;;;;;;;;26.40;39.30;;;;;;1569779;73;1121;-73
2022/08/16 04:17:05;;;;;;;;;;;26.50;39.30;;;;;;1569066;73;657;-73
2022/08/16 04:19:07;;;;;;;;;;;26.40;39.30;;;;;;1561375;76;699;-73
2022/08/16 04:21:09;;;;;;;;;;;26.40;39.30;;;;;;1573470;73;667;-73
2022/08/16 04:23:10;;;;;;;;;;;26.40;39.30;;;;;;1569718;73;728;-73
2022/08/16 04:25:12;;;;;;;;;;;26.30;39.30;;;;;;1556670;73;1241;-73
2022/08/16 04:27:14;;;;;;;;;;;26.30;39.30;;;;;;1568310;73;660;-73
2022/08/16 04:29:16;;;;;;;;;;;26.40;39.30;;;;;;1576395;74;1928;-73
2022/08/16 04:31:18;;;;;;;;;;;26.40;39.40;;;;;;1567489;73;800;-73
2022/08/16 04:33:20;;;;;;;;;;;26.40;39.40;;;;;;1566880;73;733;-74
2022/08/16 04:35:22;;;;;;;;;;;26.40;39.40;;;;;;1560166;74;1120;-73
2022/08/16 04:37:24;;;;;;;;;;;26.40;39.50;;;;;;1569082;74;923;-71
2022/08/16 04:39:26;;;;;;;;;;;26.50;39.40;;;;;;1564093;74;865;-71
2022/08/16 04:41:30;;;;;;;;;;;26.40;39.50;;;;;;1561598;74;661;-72
2022/08/16 04:43:32;;;;;;;;;;;26.40;39.40;;;;;;1569120;74;1641;-71
2022/08/16 04:45:34;;;;;;;;;;;26.40;39.40;;;;;;1562131;74;1145;-71
2022/08/16 04:47:36;;;;;;;;;;;26.40;39.50;;;;;;1569734;74;705;-71
2022/08/16 04:49:39;;;;;;;;;;;26.40;39.40;;;;;;1552615;74;1943;-71
2022/08/16 04:51:41;;;;;;;;;;;26.40;39.40;;;;;;1563411;74;1642;-71
2022/08/16 04:53:43;;;;;;;;;;;26.40;39.50;;;;;;1558054;73;702;-70
2022/08/16 04:55:45;;;;;;;;;;;26.40;39.40;;;;;;1577850;73;1124;-71
2022/08/16 04:57:48;;;;;;;;;;;26.40;39.40;;;;;;1572845;73;752;-71
2022/08/16 04:59:49;;;;;;;;;;;26.40;39.40;;;;;;1570268;73;627;-71
2022/08/16 05:01:55;;;;;;;;;;;26.40;39.40;;;;;;1573015;73;733;-72
2022/08/16 05:03:55;;;;;;;;;;;26.40;39.40;;;;;;1577525;73;1456;-71
2022/08/16 05:05:57;;;;;;;;;;;26.40;39.40;;;;;;1565869;73;1082;-72
2022/08/16 05:07:59;;;;;;;;;;;26.40;39.50;;;;;;1549398;73;750;-72
2022/08/16 05:10:01;;;;;;;;;;;26.40;39.50;;;;;;1568304;73;1936;-72
2022/08/16 05:12:03;;;;;;;;;;;26.40;39.50;;;;;;1573313;74;834;-72
2022/08/16 05:14:05;;;;;;;;;;;26.40;39.50;;;;;;1577317;73;1136;-72
2022/08/16 05:16:08;;;;;;;;;;;26.50;39.50;;;;;;1569286;73;772;-72
2022/08/16 05:18:10;;;;;;;;;;;26.40;39.50;;;;;;1558142;74;676;-71
2022/08/16 05:20:12;;;;;;;;;;;26.40;39.60;;;;;;1568701;73;804;-71
2022/08/16 05:22:14;;;;;;;;;;;26.40;39.50;;;;;;1569101;73;737;-71
2022/08/16 05:24:16;;;;;;;;;;;26.40;39.60;;;;;;1568779;73;1161;-72
2022/08/16 05:26:18;;;;;;;;;;;26.40;39.60;;;;;;1581542;73;855;-71
2022/08/16 05:28:20;;;;;;;;;;;26.40;39.60;;;;;;1569841;73;689;-72
2022/08/16 05:30:22;;;;;;;;;;;26.40;39.50;;;;;;1538547;76;1945;-72
2022/08/16 05:32:24;;;;;;;;;;;26.40;39.70;;;;;;1570973;74;737;-72
2022/08/16 05:34:26;;;;;;;;;;;26.40;39.70;;;;;;1564895;74;1161;-72
2022/08/16 05:36:28;;;;;;;;;;;26.40;39.70;;;;;;1565268;75;769;-73
2022/08/16 05:38:30;;;;;;;;;;;26.40;39.70;;;;;;1560953;74;847;-74
2022/08/16 05:40:32;;;;;;;;;;;26.50;39.70;;;;;;1563306;75;680;-72
2022/08/16 05:42:34;;;;;;;;;;;26.40;39.60;;;;;;1562085;74;875;-72
2022/08/16 05:44:36;;;;;;;;;;;26.40;39.50;;;;;;1562293;73;1130;-73
2022/08/16 05:46:38;;;;;;;;;;;26.50;39.50;;;;;;1537413;76;688;-72
2022/08/16 05:48:39;;;;;;;;;;;26.50;39.50;;;;;;1577709;73;1545;-72
2022/08/16 05:50:41;;;;;;;;;;;26.50;39.40;;;;;;1578303;74;1945;-72
2022/08/16 05:52:43;;;;;;;;;;;26.50;39.40;;;;;;1570148;73;709;-72
2022/08/16 05:54:45;;;;;;;;;;;26.50;39.40;;;;;;1579773;73;1147;-72
2022/08/16 05:56:47;;;;;;;;;;;26.50;39.40;;;;;;1569236;74;743;-72
2022/08/16 05:58:49;;;;;;;;;;;26.50;39.40;;;;;;1576739;73;748;-72
2022/08/16 06:00:51;;;;;;;;;;;26.60;39.40;;;;;;1567514;75;674;-72
2022/08/16 06:02:53;;;;;;;;;;;26.60;39.40;;;;;;1570997;75;683;-72
2022/08/16 06:04:54;;;;;;;;;;;26.60;39.40;;;;;;1577385;74;1148;-72
2022/08/16 06:06:56;;;;;;;;;;;26.60;39.40;;;;;;1572885;73;794;-72
2022/08/16 06:08:58;;;;;;;;;;;26.60;39.30;;;;;;1569600;74;1945;-71
2022/08/16 06:11:00;;;;;;;;;;;26.50;39.40;;;;;;1579943;74;731;-71
2022/08/16 06:13:02;;;;;;;;;;;26.60;39.30;;;;;;1570339;75;681;-72
2022/08/16 06:15:05;;;;;;;;;;;26.70;39.40;;;;;;1573247;74;1243;-72
2022/08/16 06:17:07;;;;;;;;;;;26.60;39.40;;;;;;1572593;75;860;-72
2022/08/16 06:19:09;;;;;;;;;;;26.70;39.30;;;;;;1574193;74;706;-72
2022/08/16 06:21:11;;;;;;;;;;;26.70;39.40;;;;;;1571071;74;856;-74
2022/08/16 06:23:13;;;;;;;;;;;26.70;39.20;;;;;;1574016;73;675;-74
2022/08/16 06:25:15;;;;;;;;;;;26.70;38.90;;;;;;1564814;74;1079;-74
2022/08/16 06:27:17;;;;;;;;;;;26.70;38.90;;;;;;1566384;74;705;-74
2022/08/16 06:29:19;;;;;;;;;;;26.70;38.90;;;;;;1577177;74;1945;-74
2022/08/16 06:31:20;;;;;;;;;;;26.70;38.80;;;;;;1577576;74;701;-70
2022/08/16 06:33:22;;;;;;;;;;;26.70;38.90;;;;;;1576857;75;903;-74
2022/08/16 06:35:25;;;;;;;;;;;26.70;38.80;;;;;;1575053;74;1150;-72
2022/08/16 06:37:27;;;;;;;;;;;26.80;38.80;;;;;;1580639;74;835;-74
2022/08/16 06:39:29;;;;;;;;;;;26.80;38.90;;;;;;1574302;74;775;-74
2022/08/16 06:41:31;;;;;;;;;;;26.80;38.70;;;;;;1573787;74;654;-71
2022/08/16 06:43:33;;;;;;;;;;;26.70;38.70;;;;;;1574201;73;742;-74
2022/08/16 06:45:39;;;;;;;;;;;26.70;38.90;;;;;;1581216;74;1536;-76
2022/08/16 06:47:41;;;;;;;;;;;26.70;39.00;;;;;;1573334;74;684;-76
2022/08/16 06:49:43;;;;;;;;;;;26.80;38.70;;;;;;1579295;74;1933;-75
2022/08/16 06:51:45;;;;;;;;;;;26.80;38.70;;;;;;1567638;74;707;-75
2022/08/16 06:53:47;;;;;;;;;;;26.80;38.80;;;;;;1570326;74;664;-75
2022/08/16 06:55:49;;;;;;;;;;;26.80;38.70;;;;;;1574869;74;1111;-75
2022/08/16 06:57:51;;;;;;;;;;;26.70;38.80;;;;;;1578680;74;654;-75
2022/08/16 06:59:53;;;;;;;;;;;26.70;38.90;;;;;;1581503;74;663;-75
2022/08/16 07:01:55;;;;;;;;;;;26.60;39.00;;;;;;1573844;73;648;-75
2022/08/16 07:03:57;;;;;;;;;;;26.60;39.10;;;;;;1576925;74;685;-75
2022/08/16 07:05:59;;;;;;;;;;;26.60;39.10;;;;;;1575839;74;1133;-75
2022/08/16 07:08:03;;;;;;;;;;;26.60;39.20;;;;;;1576356;74;781;-75
2022/08/16 07:10:04;;;;;;;;;;;26.60;39.20;;;;;;1578610;74;1922;-75
2022/08/16 07:12:06;;;;;;;;;;;26.60;39.30;;;;;;1578194;73;726;-75
2022/08/16 07:14:08;;;;;;;;;;;26.60;39.30;;;;;;1583638;74;1139;-74
2022/08/16 07:16:13;;;;;;;;;;;26.50;39.30;;;;;;1574304;74;679;-70
2022/08/16 07:18:18;;;;;;;;;;;26.50;39.30;;;;;;1570225;74;775;-73
2022/08/16 07:20:21;;;;;;;;;;;26.60;39.40;;;;;;1570478;74;1728;-75
2022/08/16 07:22:22;;;;;;;;;;;26.60;39.40;;;;;;1578021;74;1676;-74
2022/08/16 07:24:24;;;;;;;;;;;26.70;39.20;;;;;;1569368;74;1121;-72
2022/08/16 07:26:26;;;;;;;;;;;26.70;39.30;;;;;;1568730;75;608;-75
2022/08/16 07:28:28;;;;;;;;;;;26.70;39.30;;;;;;1566520;75;678;-74
2022/08/16 07:30:30;;;;;;;;;;;26.80;39.30;;;;;;1574408;74;1934;-72
2022/08/16 07:32:32;;;;;;;;;;;26.80;39.20;;;;;;1583535;74;667;-73
2022/08/16 07:34:34;;;;;;;;;;;26.80;39.50;;;;;;1566864;74;1191;-72
2022/08/16 07:36:36;;;;;;;;;;;26.90;39.60;;;;;;1569443;75;724;-71
2022/08/16 07:38:38;;;;;;;;;;;26.90;39.60;;;;;;1581426;75;801;-72
2022/08/16 07:40:40;;;;;;;;;;;26.90;39.90;;;;;;1572594;74;1574;-75
2022/08/16 07:42:41;;;;;;;;;;;26.80;40.00;;;;;;1570611;74;676;-74
2022/08/16 07:44:43;;;;;;;;;;;26.80;39.80;;;;;;1582583;75;1193;-72
2022/08/16 07:46:45;;;;;;;;;;;26.70;40.00;;;;;;1574306;74;593;-76
2022/08/16 07:48:47;;;;;;;;;;;26.80;39.80;;;;;;1575025;74;696;-74
2022/08/16 07:50:49;;;;;;;;;;;26.80;39.90;;;;;;1566856;74;1933;-75
2022/08/16 07:52:51;;;;;;;;;;;26.90;40.30;;;;;;1572067;74;707;-73
2022/08/16 07:54:53;;;;;;;;;;;26.70;40.20;;;;;;1580472;75;1149;-73
2022/08/16 07:56:55;;;;;;;;;;;26.70;40.00;;;;;;1579648;74;634;-76
2022/08/16 07:58:56;;;;;;;;;;;26.80;40.30;;;;;;1572465;74;689;-76
2022/08/16 08:01:00;;;;;;;;;;;26.80;39.70;;;;;;1573595;73;993;-75
2022/08/16 08:03:02;;;;;;;;;;;26.90;39.70;;;;;;1572770;74;661;-76
2022/08/16 08:05:04;;;;;;;;;;;26.80;39.40;;;;;;1572945;74;1144;-77
2022/08/16 08:07:06;;;;;;;;;;;26.80;39.50;;;;;;1577570;73;635;-76
2022/08/16 08:09:08;;;;;;;;;;;26.80;39.20;;;;;;1572368;73;769;-76
2022/08/16 08:11:09;;;;;;;;;;;26.90;39.30;;;;;;1568678;74;1935;-76
2022/08/16 08:13:11;;;;;;;;;;;26.90;38.90;;;;;;1576744;74;668;-76
2022/08/16 08:15:13;;;;;;;;;;;26.90;38.80;;;;;;1565879;74;1134;-74
2022/08/16 08:17:16;;;;;;;;;;;26.90;38.70;;;;;;1574041;74;691;-76
2022/08/16 08:19:17;;;;;;;;;;;26.90;38.60;;;;;;1577562;74;700;-76
2022/08/16 08:21:20;;;;;;;;;;;26.90;38.30;;;;;;1564057;75;651;-76
2022/08/16 08:23:22;;;;;;;;;;;26.90;38.30;;;;;;1574058;74;714;-76
2022/08/16 08:25:24;;;;;;;;;;;26.90;38.20;;;;;;1570439;74;1253;-76
2022/08/16 08:27:26;;;;;;;;;;;27.00;38.60;;;;;;1573545;74;651;-77
2022/08/16 08:29:28;;;;;;;;;;;26.90;37.90;;;;;;1573065;74;648;-76
2022/08/16 08:31:30;;;;;;;;;;;27.00;38.50;;;;;;1568716;74;1937;-76
2022/08/16 08:33:32;;;;;;;;;;;26.90;36.90;;;;;;1554191;74;668;-76
2022/08/16 08:35:34;;;;;;;;;;;27.00;37.60;;;;;;1537126;72;2081;-70
2022/08/16 08:37:37;;;;;;;;;;;27.00;37.70;;;;;;1504249;77;1493;-69
2022/08/16 08:39:39;;;;;;;;;;;27.00;37.70;;;;;;1504242;77;654;-69
2022/08/16 08:41:41;;;;;;;;;;;27.00;37.80;;;;;;1513613;77;707;-70
2022/08/16 08:43:44;;;;;;;;;;;27.00;37.90;;;;;;1500320;77;1022;-69
2022/08/16 08:45:46;;;;;;;;;;;27.10;37.40;;;;;;1506355;77;1197;-70
2022/08/16 08:47:48;;;;;;;;;;;27.10;37.30;;;;;;1513356;77;674;-70
2022/08/16 08:49:49;;;;;;;;;;;27.00;37.10;;;;;;1499847;77;684;-70
2022/08/16 08:51:51;;;;;;;;;;;27.00;37.50;;;;;;1498061;77;1949;-69
2022/08/16 08:53:53;;;;;;;;;;;27.10;37.60;;;;;;1508990;78;677;-70
2022/08/16 08:55:55;;;;;;;;;;;27.10;37.70;;;;;;1512929;77;1164;-69
2022/08/16 08:57:57;;;;;;;;;;;27.00;37.70;;;;;;1506891;77;654;-70
2022/08/16 09:00:00;;;;;;;;;;;27.10;37.70;;;;;;1509128;78;664;-70
2022/08/16 09:02:02;;;;;;;;;;;27.00;37.40;;;;;;1502354;77;698;-70
2022/08/16 09:04:04;;;;;;;;;;;27.20;37.90;;;;;;1500478;77;695;-69
2022/08/16 09:06:07;;;;;;;;;;;27.20;37.70;;;;;;1481258;79;1134;-70
2022/08/16 09:08:09;;;;;;;;;;;27.30;37.10;;;;;;1504056;78;714;-69
2022/08/16 09:10:11;;;;;;;;;;;27.30;37.50;;;;;;1507610;77;1933;-69
2022/08/16 09:12:13;;;;;;;;;;;27.40;37.40;;;;;;1510883;77;707;-67
2022/08/16 09:14:15;;;;;;;;;;;27.30;37.30;;;;;;1508020;78;667;-70
2022/08/16 09:16:17;;;;;;;;;;;27.40;36.60;;;;;;1509704;77;1148;-69
2022/08/16 09:18:19;;;;;;;;;;;27.30;37.30;;;;;;1515255;77;666;-70
2022/08/16 09:20:21;;;;;;;;;;;27.50;37.00;;;;;;1509111;77;677;-69
2022/08/16 09:22:23;;;;;;;;;;;27.40;37.00;;;;;;1500617;77;628;-70
2022/08/16 09:24:25;;;;;;;;;;;27.50;36.70;;;;;;1506315;77;1114;-69
2022/08/16 09:26:27;;;;;;;;;;;27.40;36.80;;;;;;1504928;77;661;-70
2022/08/16 09:28:29;;;;;;;;;;;27.50;36.80;;;;;;1499916;78;629;-70
2022/08/16 09:30:33;;;;;;;;;;;27.50;36.50;;;;;;1502403;77;1927;-71
2022/08/16 09:32:35;;;;;;;;;;;27.40;36.90;;;;;;1497922;77;1087;-68
2022/08/16 09:34:37;;;;;;;;;;;27.60;36.50;;;;;;1503497;77;1529;-70
2022/08/16 09:36:39;;;;;;;;;;;27.50;36.40;;;;;;1503287;77;756;-71
2022/08/16 09:38:41;;;;;;;;;;;27.50;36.50;;;;;;1502906;78;739;-68
2022/08/16 09:40:43;;;;;;;;;;;27.60;36.50;;;;;;1506430;77;702;-68
2022/08/16 09:42:45;;;;;;;;;;;27.60;36.00;;;;;;1500090;78;812;-71
2022/08/16 09:44:47;;;;;;;;;;;27.60;36.20;;;;;;1497785;77;1201;-70
2022/08/16 09:46:49;;;;;;;;;;;27.60;35.80;;;;;;1499408;77;717;-70
2022/08/16 09:48:51;;;;;;;;;;;27.60;36.20;;;;;;1503278;77;700;-70
2022/08/16 09:50:53;;;;;;;;;;;27.70;36.00;;;;;;1491304;78;1906;-71
2022/08/16 09:52:55;;;;;;;;;;;27.70;36.10;;;;;;1509907;77;760;-70
2022/08/16 09:54:57;;;;;;;;;;;27.60;36.20;;;;;;1505489;77;1148;-72
2022/08/16 09:56:59;;;;;;;;;;;27.50;36.00;;;;;;1504010;77;653;-71
2022/08/16 09:59:02;;;;;;;;;;;27.50;36.00;;;;;;1507305;77;679;-71
2022/08/16 10:01:03;;;;;;;;;;;27.50;36.00;;;;;;1497645;78;690;-71
2022/08/16 10:03:05;;;;;;;;;;;27.40;35.50;;;;;;1504025;78;662;-71
2022/08/16 10:05:08;;;;;;;;;;;27.40;36.20;;;;;;1499027;77;1093;-70
2022/08/16 10:07:09;;;;;;;;;;;27.50;35.90;;;;;;1501826;78;697;-70
2022/08/16 10:09:12;;;;;;;;;;;27.40;35.50;;;;;;1503601;77;697;-70
2022/08/16 10:13:34;;;;;;;;;;;27.50;35.70;;;;;;1505745;78;1648;-70
2022/08/16 10:15:36;;;;;;;;;;;27.40;35.30;;;;;;1502152;78;1151;-70
2022/08/16 10:17:41;;;;;;;;;;;27.50;35.70;;;;;;1506554;78;669;-70
2022/08/16 10:19:41;;;;;;;;;;;27.50;35.50;;;;;;1492528;77;1730;-71
2022/08/16 10:21:43;;;;;;;;;;;27.50;35.50;;;;;;1497155;77;679;-69
2022/08/16 10:23:45;;;;;;;;;;;27.50;35.50;;;;;;1508683;77;704;-70
2022/08/16 10:25:47;;;;;;;;;;;27.60;35.50;;;;;;1502597;78;1124;-70
2022/08/16 10:27:49;;;;;;;;;;;27.50;35.20;;;;;;1511801;78;652;-70
2022/08/16 10:29:51;;;;;;;;;;;27.40;35.50;;;;;;1498957;77;1371;-68
2022/08/16 10:31:53;;;;;;;;;;;27.50;35.50;;;;;;1496160;78;1921;-71
2022/08/16 10:33:55;;;;;;;;;;;27.50;35.50;;;;;;1503667;77;763;-70
2022/08/16 10:35:56;;;;;;;;;;;27.50;35.60;;;;;;1499728;78;1077;-71
2022/08/16 10:37:58;;;;;;;;;;;27.50;35.60;;;;;;1499099;77;686;-70
2022/08/16 10:40:00;;;;;;;;;;;27.50;35.60;;;;;;1497669;77;771;-71
2022/08/16 10:42:02;;;;;;;;;;;27.50;35.40;;;;;;1505169;77;751;-71
2022/08/16 10:44:05;;;;;;;;;;;27.60;35.40;;;;;;1497403;78;691;-71
2022/08/16 10:46:08;;;;;;;;;;;27.50;35.30;;;;;;1501314;78;1157;-70
2022/08/16 10:48:11;;;;;;;;;;;27.50;35.40;;;;;;1507494;77;729;-69
2022/08/16 10:50:13;;;;;;;;;;;27.50;35.20;;;;;;1510275;78;713;-70
2022/08/16 10:52:15;;;;;;;;;;;27.50;35.00;;;;;;1495339;77;1943;-72
2022/08/16 10:54:17;;;;;;;;;;;27.40;35.40;;;;;;1503099;77;618;-71
2022/08/16 10:56:19;;;;;;;;;;;27.40;35.70;;;;;;1504498;77;1158;-69
2022/08/16 10:58:21;;;;;;;;;;;27.50;35.70;;;;;;1501830;77;743;-70
2022/08/16 11:00:23;;;;;;;;;;;27.40;36.20;;;;;;1504227;78;690;-70
2022/08/16 11:02:25;;;;;;;;;;;27.40;36.40;;;;;;1495450;78;687;-71
2022/08/16 11:04:27;;;;;;;;;;;27.30;36.50;;;;;;1498670;78;1198;-72
2022/08/16 11:06:29;;;;;;;;;;;27.20;36.80;;;;;;1499746;78;646;-71
2022/08/16 11:08:31;;;;;;;;;;;27.20;37.00;;;;;;1501207;78;651;-70
2022/08/16 11:10:34;;;;;;;;;;;27.10;37.20;;;;;;1497176;77;674;-70
2022/08/16 11:12:36;;;;;;;;;;;27.10;37.20;;;;;;1490162;77;1933;-70
2022/08/16 11:14:38;;;;;;;;;;;27.10;37.20;;;;;;1492747;77;1174;-69
2022/08/16 11:16:40;;;;;;;;;;;27.10;37.20;;;;;;1502096;78;655;-70
2022/08/16 11:18:43;;;;;;;;;;;27.30;37.20;;;;;;1499028;78;724;-69
2022/08/16 11:20:46;;;;;;;;;;;27.20;37.20;;;;;;1503308;78;741;-70
2022/08/16 11:22:48;;;;;;;;;;;27.20;37.40;;;;;;1499554;78;742;-70
2022/08/16 11:24:50;;;;;;;;;;;27.20;37.10;;;;;;1504354;76;1145;-69
2022/08/16 11:26:52;;;;;;;;;;;27.30;37.00;;;;;;1494374;77;1556;-70
2022/08/16 11:28:56;;;;;;;;;;;27.30;37.30;;;;;;1503213;77;731;-70
2022/08/16 11:30:58;;;;;;;;;;;27.20;37.10;;;;;;1500934;78;1918;-70
2022/08/16 11:33:02;;;;;;;;;;;27.10;37.40;;;;;;1497362;77;688;-71
2022/08/16 11:35:06;;;;;;;;;;;27.10;37.00;;;;;;1500631;78;1144;-70
2022/08/16 11:37:08;;;;;;;;;;;27.10;37.30;;;;;;1504539;78;776;-68
2022/08/16 11:39:10;;;;;;;;;;;27.10;37.60;;;;;;1497554;77;673;-69
2022/08/16 11:41:12;;;;;;;;;;;27.10;37.30;;;;;;1499175;77;676;-68
2022/08/16 11:43:14;;;;;;;;;;;27.10;37.50;;;;;;1503643;77;711;-69
2022/08/16 11:45:16;;;;;;;;;;;27.10;37.50;;;;;;1496380;78;1208;-70
2022/08/16 11:47:18;;;;;;;;;;;27.00;37.30;;;;;;1500074;77;677;-69
2022/08/16 11:49:19;;;;;;;;;;;27.00;37.60;;;;;;1498795;78;701;-70
2022/08/16 11:51:21;;;;;;;;;;;27.00;37.60;;;;;;1505135;77;1936;-69
2022/08/16 11:53:23;;;;;;;;;;;27.00;37.10;;;;;;1499336;78;707;-68
2022/08/16 11:55:25;;;;;;;;;;;26.90;36.50;;;;;;1493245;77;1169;-70
2022/08/16 11:57:27;;;;;;;;;;;27.10;37.20;;;;;;1500270;77;688;-68
2022/08/16 11:59:29;;;;;;;;;;;27.20;36.90;;;;;;1503425;77;724;-69
2022/08/16 12:01:32;;;;;;;;;;;27.20;36.60;;;;;;1497302;78;679;-68
2022/08/16 12:03:34;;;;;;;;;;;27.20;36.50;;;;;;1492919;78;737;-68
2022/08/16 12:05:36;;;;;;;;;;;27.30;36.30;;;;;;1497456;78;1151;-69
2022/08/16 12:07:38;;;;;;;;;;;27.40;36.30;;;;;;1504797;77;646;-70
2022/08/16 12:09:39;;;;;;;;;;;27.30;36.10;;;;;;1498121;78;699;-70
2022/08/16 12:11:42;;;;;;;;;;;27.40;36.20;;;;;;1506997;78;1942;-70